sensor_id;sensor_type;location;lat;lon;timestamp;temperature;humidity
58339;DHT22;68636;52.704;6.536;2023-03-21T00:02:02;9.30;99.90
58339;DHT22;68636;52.704;6.536;2023-03-21T00:04:28;9.30;99.90
58339;DHT22;68636;52.704;6.536;2023-03-21T00:06:53;9.30;99.90
58339;DHT22;68636;52.704;6.536;2023-03-21T00:09:20;9.30;99.90
58339;DHT22;68636;52.704;6.536;2023-03-21T00:11:46;9.30;99.90
58339;DHT22;68636;52.704;6.536;2023-03-21T00:14:13;9.40;99.90
58339;DHT22;68636;52.704;6.536;2023-03-21T00:16:43;9.30;99.90
58339;DHT22;68636;52.704;6.536;2023-03-21T00:19:10;9.40;99.90
58339;DHT22;68636;52.704;6.536;2023-03-21T00:21:36;9.30;99.90
58339;DHT22;68636;52.704;6.536;2023-03-21T00:24:04;9.30;99.90
58339;DHT22;68636;52.704;6.536;2023-03-21T00:26:30;9.40;99.90
58339;DHT22;68636;52.704;6.536;2023-03-21T00:28:56;9.40;99.90
58339;DHT22;68636;52.704;6.536;2023-03-21T00:31:22;9.30;99.90
58339;DHT22;68636;52.704;6.536;2023-03-21T00:33:47;9.40;99.90
58339;DHT22;68636;52.704;6.536;2023-03-21T00:36:14;9.40;99.90
58339;DHT22;68636;52.704;6.536;2023-03-21T00:38:40;9.40;99.90
58339;DHT22;68636;52.704;6.536;2023-03-21T00:41:08;9.40;99.90
58339;DHT22;68636;52.704;6.536;2023-03-21T00:43:35;9.40;99.90
58339;DHT22;68636;52.704;6.536;2023-03-21T00:46:02;9.40;99.90
58339;DHT22;68636;52.704;6.536;2023-03-21T00:48:28;9.40;99.90
58339;DHT22;68636;52.704;6.536;2023-03-21T00:50:55;9.40;99.90
58339;DHT22;68636;52.704;6.536;2023-03-21T00:53:22;9.40;99.90
58339;DHT22;68636;52.704;6.536;2023-03-21T00:55:48;9.50;99.90
58339;DHT22;68636;52.704;6.536;2023-03-21T00:58:15;9.40;99.90
58339;DHT22;68636;52.704;6.536;2023-03-21T01:00:41;9.40;99.90
58339;DHT22;68636;52.704;6.536;2023-03-21T01:03:09;9.40;99.90
58339;DHT22;68636;52.704;6.536;2023-03-21T01:05:47;9.40;99.90
58339;DHT22;68636;52.704;6.536;2023-03-21T01:08:36;9.50;99.90
58339;DHT22;68636;52.704;6.536;2023-03-21T01:11:08;9.50;99.90
58339;DHT22;68636;52.704;6.536;2023-03-21T01:13:34;9.40;99.90
58339;DHT22;68636;52.704;6.536;2023-03-21T01:16:00;9.50;99.90
58339;DHT22;68636;52.704;6.536;2023-03-21T01:18:28;9.40;99.90
58339;DHT22;68636;52.704;6.536;2023-03-21T01:20:57;9.50;99.90
58339;DHT22;68636;52.704;6.536;2023-03-21T01:23:24;9.50;99.90
58339;DHT22;68636;52.704;6.536;2023-03-21T01:25:51;9.40;99.90
58339;DHT22;68636;52.704;6.536;2023-03-21T01:28:17;9.50;99.90
58339;DHT22;68636;52.704;6.536;2023-03-21T01:30:48;9.40;99.90
58339;DHT22;68636;52.704;6.536;2023-03-21T01:33:15;9.40;99.90
58339;DHT22;68636;52.704;6.536;2023-03-21T01:35:41;9.40;99.90
58339;DHT22;68636;52.704;6.536;2023-03-21T01:38:07;9.50;99.90
58339;DHT22;68636;52.704;6.536;2023-03-21T01:40:35;9.40;99.90
58339;DHT22;68636;52.704;6.536;2023-03-21T01:43:01;9.40;99.90
58339;DHT22;68636;52.704;6.536;2023-03-21T01:48:30;9.40;99.90
58339;DHT22;68636;52.704;6.536;2023-03-21T01:50:58;9.50;99.90
58339;DHT22;68636;52.704;6.536;2023-03-21T01:53:26;9.40;99.90
58339;DHT22;68636;52.704;6.536;2023-03-21T01:56:02;9.50;99.90
58339;DHT22;68636;52.704;6.536;2023-03-21T01:58:28;9.50;99.90
58339;DHT22;68636;52.704;6.536;2023-03-21T02:00:54;9.40;99.90
58339;DHT22;68636;52.704;6.536;2023-03-21T02:03:22;9.40;99.90
58339;DHT22;68636;52.704;6.536;2023-03-21T02:05:53;9.40;99.90
58339;DHT22;68636;52.704;6.536;2023-03-21T02:08:21;9.40;99.90
58339;DHT22;68636;52.704;6.536;2023-03-21T02:10:48;9.40;99.90
58339;DHT22;68636;52.704;6.536;2023-03-21T02:13:15;9.40;99.90
58339;DHT22;68636;52.704;6.536;2023-03-21T02:15:48;9.40;99.90
58339;DHT22;68636;52.704;6.536;2023-03-21T02:37:23;9.40;99.90
58339;DHT22;68636;52.704;6.536;2023-03-21T02:45:20;9.30;99.90
58339;DHT22;68636;52.704;6.536;2023-03-21T02:47:52;9.30;99.90
58339;DHT22;68636;52.704;6.536;2023-03-21T02:50:49;9.30;99.90
58339;DHT22;68636;52.704;6.536;2023-03-21T02:53:19;9.30;99.90
58339;DHT22;68636;52.704;6.536;2023-03-21T02:55:46;9.30;99.90
58339;DHT22;68636;52.704;6.536;2023-03-21T02:58:18;9.30;99.90
58339;DHT22;68636;52.704;6.536;2023-03-21T03:00:45;9.30;99.90
58339;DHT22;68636;52.704;6.536;2023-03-21T03:03:13;9.30;99.90
58339;DHT22;68636;52.704;6.536;2023-03-21T03:05:46;9.30;99.90
58339;DHT22;68636;52.704;6.536;2023-03-21T03:13:57;9.30;99.90
58339;DHT22;68636;52.704;6.536;2023-03-21T03:19:25;9.30;99.90
58339;DHT22;68636;52.704;6.536;2023-03-21T03:24:26;9.30;99.90
58339;DHT22;68636;52.704;6.536;2023-03-21T03:27:14;9.40;99.90
58339;DHT22;68636;52.704;6.536;2023-03-21T03:29:44;9.30;99.90
58339;DHT22;68636;52.704;6.536;2023-03-21T03:32:26;9.30;99.90
58339;DHT22;68636;52.704;6.536;2023-03-21T03:34:55;9.30;99.90
58339;DHT22;68636;52.704;6.536;2023-03-21T03:37:24;9.30;99.90
58339;DHT22;68636;52.704;6.536;2023-03-21T03:40:01;9.30;99.90
58339;DHT22;68636;52.704;6.536;2023-03-21T03:42:51;9.30;99.90
58339;DHT22;68636;52.704;6.536;2023-03-21T03:45:17;9.30;99.90
58339;DHT22;68636;52.704;6.536;2023-03-21T03:50:43;9.30;99.90
58339;DHT22;68636;52.704;6.536;2023-03-21T03:55:44;9.30;99.90
58339;DHT22;68636;52.704;6.536;2023-03-21T03:58:10;9.30;99.90
58339;DHT22;68636;52.704;6.536;2023-03-21T04:00:38;9.30;99.90
58339;DHT22;68636;52.704;6.536;2023-03-21T04:03:04;9.30;99.90
58339;DHT22;68636;52.704;6.536;2023-03-21T04:05:32;9.30;99.90
58339;DHT22;68636;52.704;6.536;2023-03-21T04:07:57;9.30;99.90
58339;DHT22;68636;52.704;6.536;2023-03-21T04:10:23;9.30;99.90
58339;DHT22;68636;52.704;6.536;2023-03-21T04:12:49;9.30;99.90
58339;DHT22;68636;52.704;6.536;2023-03-21T04:15:15;9.30;99.90
58339;DHT22;68636;52.704;6.536;2023-03-21T04:17:40;9.30;99.90
58339;DHT22;68636;52.704;6.536;2023-03-21T04:20:06;9.30;99.90
58339;DHT22;68636;52.704;6.536;2023-03-21T04:22:33;9.30;99.90
58339;DHT22;68636;52.704;6.536;2023-03-21T04:24:59;9.40;99.90
58339;DHT22;68636;52.704;6.536;2023-03-21T04:27:30;9.30;99.90
58339;DHT22;68636;52.704;6.536;2023-03-21T04:29:57;9.30;99.90
58339;DHT22;68636;52.704;6.536;2023-03-21T04:32:23;9.30;99.90
58339;DHT22;68636;52.704;6.536;2023-03-21T04:34:51;9.30;99.90
58339;DHT22;68636;52.704;6.536;2023-03-21T04:37:20;9.30;99.90
58339;DHT22;68636;52.704;6.536;2023-03-21T04:39:48;9.30;99.90
58339;DHT22;68636;52.704;6.536;2023-03-21T04:42:15;9.30;99.90
58339;DHT22;68636;52.704;6.536;2023-03-21T04:44:44;9.30;99.90
58339;DHT22;68636;52.704;6.536;2023-03-21T04:47:10;9.30;99.90
58339;DHT22;68636;52.704;6.536;2023-03-21T04:49:38;9.30;99.90
58339;DHT22;68636;52.704;6.536;2023-03-21T04:52:04;9.30;99.90
58339;DHT22;68636;52.704;6.536;2023-03-21T04:54:30;9.30;99.90
58339;DHT22;68636;52.704;6.536;2023-03-21T04:56:57;9.30;99.90
58339;DHT22;68636;52.704;6.536;2023-03-21T04:59:23;9.30;99.90
58339;DHT22;68636;52.704;6.536;2023-03-21T05:01:49;9.30;99.90
58339;DHT22;68636;52.704;6.536;2023-03-21T05:04:16;9.30;99.90
58339;DHT22;68636;52.704;6.536;2023-03-21T05:06:43;9.30;99.90
58339;DHT22;68636;52.704;6.536;2023-03-21T05:09:09;9.30;99.90
58339;DHT22;68636;52.704;6.536;2023-03-21T05:11:37;9.30;99.90
58339;DHT22;68636;52.704;6.536;2023-03-21T05:14:04;9.30;99.90
58339;DHT22;68636;52.704;6.536;2023-03-21T05:16:30;9.30;99.90
58339;DHT22;68636;52.704;6.536;2023-03-21T05:18:57;9.20;99.90
58339;DHT22;68636;52.704;6.536;2023-03-21T05:21:24;9.30;99.90
58339;DHT22;68636;52.704;6.536;2023-03-21T05:23:54;9.30;99.90
58339;DHT22;68636;52.704;6.536;2023-03-21T05:26:22;9.30;99.90
58339;DHT22;68636;52.704;6.536;2023-03-21T05:28:49;9.20;99.90
58339;DHT22;68636;52.704;6.536;2023-03-21T05:31:16;9.20;99.90
58339;DHT22;68636;52.704;6.536;2023-03-21T05:33:43;9.20;99.90
58339;DHT22;68636;52.704;6.536;2023-03-21T05:36:08;9.20;99.90
58339;DHT22;68636;52.704;6.536;2023-03-21T05:38:34;9.20;99.90
58339;DHT22;68636;52.704;6.536;2023-03-21T05:41:00;9.20;99.90
58339;DHT22;68636;52.704;6.536;2023-03-21T05:43:26;9.20;99.90
58339;DHT22;68636;52.704;6.536;2023-03-21T05:45:52;9.20;99.90
58339;DHT22;68636;52.704;6.536;2023-03-21T05:48:18;9.20;99.90
58339;DHT22;68636;52.704;6.536;2023-03-21T05:50:43;9.20;99.90
58339;DHT22;68636;52.704;6.536;2023-03-21T05:53:09;9.20;99.90
58339;DHT22;68636;52.704;6.536;2023-03-21T05:55:35;9.20;99.90
58339;DHT22;68636;52.704;6.536;2023-03-21T05:58:01;9.20;99.90
58339;DHT22;68636;52.704;6.536;2023-03-21T06:00:27;9.20;99.90
58339;DHT22;68636;52.704;6.536;2023-03-21T06:02:52;9.20;99.90
58339;DHT22;68636;52.704;6.536;2023-03-21T06:05:19;9.20;99.90
58339;DHT22;68636;52.704;6.536;2023-03-21T06:07:45;9.20;99.90
58339;DHT22;68636;52.704;6.536;2023-03-21T06:10:10;9.20;99.90
58339;DHT22;68636;52.704;6.536;2023-03-21T06:12:36;9.20;99.90
58339;DHT22;68636;52.704;6.536;2023-03-21T06:15:04;9.30;99.90
58339;DHT22;68636;52.704;6.536;2023-03-21T06:17:30;9.30;99.90
58339;DHT22;68636;52.704;6.536;2023-03-21T06:19:56;9.30;99.90
58339;DHT22;68636;52.704;6.536;2023-03-21T06:22:22;9.30;99.90
58339;DHT22;68636;52.704;6.536;2023-03-21T06:24:48;9.30;99.90
58339;DHT22;68636;52.704;6.536;2023-03-21T06:27:14;9.30;99.90
58339;DHT22;68636;52.704;6.536;2023-03-21T06:29:40;9.30;99.90
58339;DHT22;68636;52.704;6.536;2023-03-21T06:32:05;9.30;99.90
58339;DHT22;68636;52.704;6.536;2023-03-21T06:34:32;9.30;99.90
58339;DHT22;68636;52.704;6.536;2023-03-21T06:36:58;9.30;99.90
58339;DHT22;68636;52.704;6.536;2023-03-21T06:39:24;9.40;99.90
58339;DHT22;68636;52.704;6.536;2023-03-21T06:41:50;9.30;99.90
58339;DHT22;68636;52.704;6.536;2023-03-21T06:44:15;9.40;99.90
58339;DHT22;68636;52.704;6.536;2023-03-21T06:46:41;9.40;99.90
58339;DHT22;68636;52.704;6.536;2023-03-21T06:49:07;9.30;99.90
58339;DHT22;68636;52.704;6.536;2023-03-21T06:51:33;9.40;99.90
58339;DHT22;68636;52.704;6.536;2023-03-21T06:53:58;9.40;99.90
58339;DHT22;68636;52.704;6.536;2023-03-21T06:56:24;9.40;99.90
58339;DHT22;68636;52.704;6.536;2023-03-21T06:58:50;9.40;99.90
58339;DHT22;68636;52.704;6.536;2023-03-21T07:01:16;9.40;99.90
58339;DHT22;68636;52.704;6.536;2023-03-21T07:03:42;9.50;99.90
58339;DHT22;68636;52.704;6.536;2023-03-21T07:06:09;9.40;99.90
58339;DHT22;68636;52.704;6.536;2023-03-21T07:08:39;9.40;99.90
58339;DHT22;68636;52.704;6.536;2023-03-21T07:11:05;9.40;99.90
58339;DHT22;68636;52.704;6.536;2023-03-21T07:13:31;9.40;99.90
58339;DHT22;68636;52.704;6.536;2023-03-21T07:15:58;9.40;99.90
58339;DHT22;68636;52.704;6.536;2023-03-21T07:18:23;9.30;99.90
58339;DHT22;68636;52.704;6.536;2023-03-21T07:20:50;9.30;99.90
58339;DHT22;68636;52.704;6.536;2023-03-21T07:23:17;9.30;99.90
58339;DHT22;68636;52.704;6.536;2023-03-21T07:25:43;9.30;99.90
58339;DHT22;68636;52.704;6.536;2023-03-21T07:28:09;9.30;99.90
58339;DHT22;68636;52.704;6.536;2023-03-21T07:30:35;9.20;99.90
58339;DHT22;68636;52.704;6.536;2023-03-21T07:33:01;9.20;99.90
58339;DHT22;68636;52.704;6.536;2023-03-21T07:35:27;9.30;99.90
58339;DHT22;68636;52.704;6.536;2023-03-21T07:37:52;9.30;99.90
58339;DHT22;68636;52.704;6.536;2023-03-21T07:40:18;9.30;99.90
58339;DHT22;68636;52.704;6.536;2023-03-21T07:42:44;9.30;99.90
58339;DHT22;68636;52.704;6.536;2023-03-21T07:45:10;9.30;99.90
58339;DHT22;68636;52.704;6.536;2023-03-21T07:47:39;9.30;99.90
58339;DHT22;68636;52.704;6.536;2023-03-21T07:50:05;9.30;99.90
58339;DHT22;68636;52.704;6.536;2023-03-21T07:52:31;9.40;99.90
58339;DHT22;68636;52.704;6.536;2023-03-21T07:54:57;9.40;99.90
58339;DHT22;68636;52.704;6.536;2023-03-21T07:57:23;9.40;99.90
58339;DHT22;68636;52.704;6.536;2023-03-21T07:59:49;9.40;99.90
58339;DHT22;68636;52.704;6.536;2023-03-21T08:02:16;9.40;99.90
58339;DHT22;68636;52.704;6.536;2023-03-21T08:04:42;9.40;99.90
58339;DHT22;68636;52.704;6.536;2023-03-21T08:07:09;9.50;99.90
58339;DHT22;68636;52.704;6.536;2023-03-21T08:09:35;9.50;99.90
58339;DHT22;68636;52.704;6.536;2023-03-21T08:12:01;9.50;99.90
58339;DHT22;68636;52.704;6.536;2023-03-21T08:14:27;9.50;99.90
58339;DHT22;68636;52.704;6.536;2023-03-21T08:16:53;9.50;99.90
58339;DHT22;68636;52.704;6.536;2023-03-21T08:19:18;9.60;99.90
58339;DHT22;68636;52.704;6.536;2023-03-21T08:21:49;9.60;99.90
58339;DHT22;68636;52.704;6.536;2023-03-21T08:24:15;9.60;99.90
58339;DHT22;68636;52.704;6.536;2023-03-21T08:26:41;9.70;99.90
58339;DHT22;68636;52.704;6.536;2023-03-21T08:29:08;9.70;99.90
58339;DHT22;68636;52.704;6.536;2023-03-21T08:31:35;9.80;99.90
58339;DHT22;68636;52.704;6.536;2023-03-21T08:34:01;9.70;99.90
58339;DHT22;68636;52.704;6.536;2023-03-21T08:36:26;9.70;99.90
58339;DHT22;68636;52.704;6.536;2023-03-21T08:38:52;9.70;99.90
58339;DHT22;68636;52.704;6.536;2023-03-21T08:41:22;9.70;99.90
58339;DHT22;68636;52.704;6.536;2023-03-21T08:43:50;9.70;99.90
58339;DHT22;68636;52.704;6.536;2023-03-21T08:46:16;9.70;99.90
58339;DHT22;68636;52.704;6.536;2023-03-21T08:48:42;9.70;99.90
58339;DHT22;68636;52.704;6.536;2023-03-21T08:51:08;9.70;99.90
58339;DHT22;68636;52.704;6.536;2023-03-21T08:53:33;9.70;99.90
58339;DHT22;68636;52.704;6.536;2023-03-21T08:55:59;9.70;99.90
58339;DHT22;68636;52.704;6.536;2023-03-21T08:58:25;9.70;99.90
58339;DHT22;68636;52.704;6.536;2023-03-21T09:00:50;9.70;99.90
58339;DHT22;68636;52.704;6.536;2023-03-21T09:03:16;9.80;99.90
58339;DHT22;68636;52.704;6.536;2023-03-21T09:05:42;9.80;99.90
58339;DHT22;68636;52.704;6.536;2023-03-21T09:08:10;9.80;99.90
58339;DHT22;68636;52.704;6.536;2023-03-21T09:10:38;9.80;99.90
58339;DHT22;68636;52.704;6.536;2023-03-21T09:13:04;9.90;99.90
58339;DHT22;68636;52.704;6.536;2023-03-21T09:15:30;9.90;99.90
58339;DHT22;68636;52.704;6.536;2023-03-21T09:17:57;9.90;99.90
58339;DHT22;68636;52.704;6.536;2023-03-21T09:20:37;10.00;99.90
58339;DHT22;68636;52.704;6.536;2023-03-21T09:23:04;10.10;99.90
58339;DHT22;68636;52.704;6.536;2023-03-21T09:25:29;10.00;99.90
58339;DHT22;68636;52.704;6.536;2023-03-21T09:27:57;10.10;99.90
58339;DHT22;68636;52.704;6.536;2023-03-21T09:30:23;10.10;99.90
58339;DHT22;68636;52.704;6.536;2023-03-21T09:32:49;10.00;99.90
58339;DHT22;68636;52.704;6.536;2023-03-21T09:35:17;10.10;99.90
58339;DHT22;68636;52.704;6.536;2023-03-21T09:37:44;10.10;99.90
58339;DHT22;68636;52.704;6.536;2023-03-21T09:40:17;10.20;99.90
58339;DHT22;68636;52.704;6.536;2023-03-21T09:43:19;10.20;99.90
58339;DHT22;68636;52.704;6.536;2023-03-21T09:45:58;10.20;99.90
58339;DHT22;68636;52.704;6.536;2023-03-21T09:51:28;10.20;99.90
58339;DHT22;68636;52.704;6.536;2023-03-21T09:53:58;10.30;99.90
58339;DHT22;68636;52.704;6.536;2023-03-21T09:56:26;10.20;99.90
58339;DHT22;68636;52.704;6.536;2023-03-21T09:58:55;10.20;99.90
58339;DHT22;68636;52.704;6.536;2023-03-21T10:01:24;10.20;99.90
58339;DHT22;68636;52.704;6.536;2023-03-21T10:04:05;10.20;99.90
58339;DHT22;68636;52.704;6.536;2023-03-21T10:06:34;10.30;99.90
58339;DHT22;68636;52.704;6.536;2023-03-21T10:09:21;10.20;99.90
58339;DHT22;68636;52.704;6.536;2023-03-21T10:12:03;10.30;99.90
58339;DHT22;68636;52.704;6.536;2023-03-21T10:14:43;10.30;99.90
58339;DHT22;68636;52.704;6.536;2023-03-21T10:19:42;10.50;99.90
58339;DHT22;68636;52.704;6.536;2023-03-21T10:22:10;10.60;99.90
58339;DHT22;68636;52.704;6.536;2023-03-21T10:24:36;10.70;99.90
58339;DHT22;68636;52.704;6.536;2023-03-21T10:27:03;10.70;99.90
58339;DHT22;68636;52.704;6.536;2023-03-21T10:29:42;10.70;99.90
58339;DHT22;68636;52.704;6.536;2023-03-21T10:32:14;10.70;99.90
58339;DHT22;68636;52.704;6.536;2023-03-21T10:34:49;10.60;99.90
58339;DHT22;68636;52.704;6.536;2023-03-21T10:37:17;10.60;99.90
58339;DHT22;68636;52.704;6.536;2023-03-21T10:39:46;10.70;99.90
58339;DHT22;68636;52.704;6.536;2023-03-21T10:42:39;10.70;99.90
58339;DHT22;68636;52.704;6.536;2023-03-21T10:45:16;10.70;99.90
58339;DHT22;68636;52.704;6.536;2023-03-21T10:47:46;10.80;99.90
58339;DHT22;68636;52.704;6.536;2023-03-21T10:50:16;10.80;99.90
58339;DHT22;68636;52.704;6.536;2023-03-21T10:52:55;10.90;99.90
58339;DHT22;68636;52.704;6.536;2023-03-21T10:55:32;11.10;99.90
58339;DHT22;68636;52.704;6.536;2023-03-21T10:58:03;11.20;99.90
58339;DHT22;68636;52.704;6.536;2023-03-21T11:00:39;11.20;99.90
58339;DHT22;68636;52.704;6.536;2023-03-21T11:03:12;11.40;99.90
58339;DHT22;68636;52.704;6.536;2023-03-21T11:05:45;11.50;99.90
58339;DHT22;68636;52.704;6.536;2023-03-21T11:08:11;11.50;99.90
58339;DHT22;68636;52.704;6.536;2023-03-21T11:13:25;11.70;99.90
58339;DHT22;68636;52.704;6.536;2023-03-21T11:15:55;11.80;99.90
58339;DHT22;68636;52.704;6.536;2023-03-21T11:18:26;11.80;99.90
58339;DHT22;68636;52.704;6.536;2023-03-21T11:21:00;11.90;99.90
58339;DHT22;68636;52.704;6.536;2023-03-21T11:23:29;12.00;99.90
58339;DHT22;68636;52.704;6.536;2023-03-21T11:25:58;12.20;99.90
58339;DHT22;68636;52.704;6.536;2023-03-21T11:28:31;12.20;99.90
58339;DHT22;68636;52.704;6.536;2023-03-21T11:31:00;12.10;99.90
58339;DHT22;68636;52.704;6.536;2023-03-21T11:33:31;12.30;99.90
58339;DHT22;68636;52.704;6.536;2023-03-21T11:36:32;12.30;99.90
58339;DHT22;68636;52.704;6.536;2023-03-21T11:39:35;12.10;99.90
58339;DHT22;68636;52.704;6.536;2023-03-21T11:42:05;12.40;99.90
58339;DHT22;68636;52.704;6.536;2023-03-21T11:44:42;12.30;99.90
58339;DHT22;68636;52.704;6.536;2023-03-21T11:47:09;12.10;99.90
58339;DHT22;68636;52.704;6.536;2023-03-21T11:49:35;12.30;99.90
58339;DHT22;68636;52.704;6.536;2023-03-21T11:54:32;12.40;99.90
58339;DHT22;68636;52.704;6.536;2023-03-21T11:57:05;12.50;99.90
58339;DHT22;68636;52.704;6.536;2023-03-21T12:02:23;12.60;99.90
58339;DHT22;68636;52.704;6.536;2023-03-21T12:05:17;12.70;99.90
58339;DHT22;68636;52.704;6.536;2023-03-21T12:21:04;13.00;99.90
58339;DHT22;68636;52.704;6.536;2023-03-21T12:26:26;13.00;99.90
58339;DHT22;68636;52.704;6.536;2023-03-21T12:37:34;12.50;99.90
58339;DHT22;68636;52.704;6.536;2023-03-21T12:45:57;12.20;99.90
58339;DHT22;68636;52.704;6.536;2023-03-21T12:50:55;12.10;99.90
58339;DHT22;68636;52.704;6.536;2023-03-21T12:56:10;12.40;99.90
58339;DHT22;68636;52.704;6.536;2023-03-21T12:58:45;12.60;99.90
58339;DHT22;68636;52.704;6.536;2023-03-21T13:01:14;13.00;99.90
58339;DHT22;68636;52.704;6.536;2023-03-21T13:03:45;13.10;99.90
58339;DHT22;68636;52.704;6.536;2023-03-21T13:06:17;13.10;99.90
58339;DHT22;68636;52.704;6.536;2023-03-21T13:11:28;13.00;99.90
58339;DHT22;68636;52.704;6.536;2023-03-21T13:24:26;12.70;99.90
58339;DHT22;68636;52.704;6.536;2023-03-21T13:27:20;12.80;99.90
58339;DHT22;68636;52.704;6.536;2023-03-21T13:32:40;12.80;99.90
58339;DHT22;68636;52.704;6.536;2023-03-21T13:35:32;12.70;99.90
58339;DHT22;68636;52.704;6.536;2023-03-21T13:38:05;12.70;99.90
58339;DHT22;68636;52.704;6.536;2023-03-21T13:40:37;12.60;99.90
58339;DHT22;68636;52.704;6.536;2023-03-21T13:43:21;12.60;99.90
58339;DHT22;68636;52.704;6.536;2023-03-21T13:45:52;12.60;99.90
58339;DHT22;68636;52.704;6.536;2023-03-21T13:48:39;12.60;99.90
58339;DHT22;68636;52.704;6.536;2023-03-21T13:51:06;12.50;99.90
58339;DHT22;68636;52.704;6.536;2023-03-21T13:53:41;12.50;99.90
58339;DHT22;68636;52.704;6.536;2023-03-21T13:56:20;12.50;99.90
58339;DHT22;68636;52.704;6.536;2023-03-21T14:01:19;12.80;99.90
58339;DHT22;68636;52.704;6.536;2023-03-21T14:03:46;13.00;99.90
58339;DHT22;68636;52.704;6.536;2023-03-21T14:06:14;13.20;99.90
58339;DHT22;68636;52.704;6.536;2023-03-21T14:08:42;13.40;99.90
58339;DHT22;68636;52.704;6.536;2023-03-21T14:11:18;13.50;99.90
58339;DHT22;68636;52.704;6.536;2023-03-21T14:13:44;13.60;99.90
58339;DHT22;68636;52.704;6.536;2023-03-21T14:16:18;13.70;99.90
58339;DHT22;68636;52.704;6.536;2023-03-21T14:18:58;13.70;99.90
58339;DHT22;68636;52.704;6.536;2023-03-21T14:21:27;13.90;99.90
58339;DHT22;68636;52.704;6.536;2023-03-21T14:23:59;14.00;99.90
58339;DHT22;68636;52.704;6.536;2023-03-21T14:26:29;14.10;99.90
58339;DHT22;68636;52.704;6.536;2023-03-21T14:28:56;14.10;99.90
58339;DHT22;68636;52.704;6.536;2023-03-21T14:31:23;14.20;99.90
58339;DHT22;68636;52.704;6.536;2023-03-21T14:33:51;14.00;99.90
58339;DHT22;68636;52.704;6.536;2023-03-21T14:36:32;14.00;99.90
58339;DHT22;68636;52.704;6.536;2023-03-21T14:41:29;13.90;99.90
58339;DHT22;68636;52.704;6.536;2023-03-21T14:46:40;14.30;99.90
58339;DHT22;68636;52.704;6.536;2023-03-21T14:49:20;14.30;99.90
58339;DHT22;68636;52.704;6.536;2023-03-21T14:51:46;14.50;99.90
58339;DHT22;68636;52.704;6.536;2023-03-21T14:54:16;14.40;99.90
58339;DHT22;68636;52.704;6.536;2023-03-21T14:56:45;14.40;99.90
58339;DHT22;68636;52.704;6.536;2023-03-21T14:59:15;14.50;99.90
58339;DHT22;68636;52.704;6.536;2023-03-21T15:01:42;14.50;99.90
58339;DHT22;68636;52.704;6.536;2023-03-21T15:04:10;14.30;99.90
58339;DHT22;68636;52.704;6.536;2023-03-21T15:06:55;14.20;99.90
58339;DHT22;68636;52.704;6.536;2023-03-21T15:09:24;14.20;99.90
58339;DHT22;68636;52.704;6.536;2023-03-21T15:11:52;14.00;99.90
58339;DHT22;68636;52.704;6.536;2023-03-21T15:14:34;14.00;99.90
58339;DHT22;68636;52.704;6.536;2023-03-21T15:17:01;13.90;99.90
58339;DHT22;68636;52.704;6.536;2023-03-21T15:19:32;13.70;99.90
58339;DHT22;68636;52.704;6.536;2023-03-21T15:22:12;13.60;99.90
58339;DHT22;68636;52.704;6.536;2023-03-21T15:24:41;13.50;99.90
58339;DHT22;68636;52.704;6.536;2023-03-21T15:27:15;13.50;99.90
58339;DHT22;68636;52.704;6.536;2023-03-21T15:29:42;13.40;99.90
58339;DHT22;68636;52.704;6.536;2023-03-21T15:32:14;13.40;99.90
58339;DHT22;68636;52.704;6.536;2023-03-21T15:34:42;13.40;99.90
58339;DHT22;68636;52.704;6.536;2023-03-21T15:37:16;13.40;99.90
58339;DHT22;68636;52.704;6.536;2023-03-21T15:39:43;13.40;99.90
58339;DHT22;68636;52.704;6.536;2023-03-21T15:42:33;13.30;99.90
58339;DHT22;68636;52.704;6.536;2023-03-21T15:45:07;13.30;99.90
58339;DHT22;68636;52.704;6.536;2023-03-21T15:47:50;13.30;99.90
58339;DHT22;68636;52.704;6.536;2023-03-21T15:52:55;13.10;99.90
58339;DHT22;68636;52.704;6.536;2023-03-21T15:55:28;13.10;99.90
58339;DHT22;68636;52.704;6.536;2023-03-21T15:58:00;13.10;99.90
58339;DHT22;68636;52.704;6.536;2023-03-21T16:00:38;13.10;99.90
58339;DHT22;68636;52.704;6.536;2023-03-21T16:03:15;13.00;99.90
58339;DHT22;68636;52.704;6.536;2023-03-21T16:08:34;13.10;99.90
58339;DHT22;68636;52.704;6.536;2023-03-21T16:14:02;13.10;99.90
58339;DHT22;68636;52.704;6.536;2023-03-21T16:16:29;13.10;99.90
58339;DHT22;68636;52.704;6.536;2023-03-21T16:18:56;13.10;99.90
58339;DHT22;68636;52.704;6.536;2023-03-21T16:21:25;13.20;99.90
58339;DHT22;68636;52.704;6.536;2023-03-21T16:23:51;13.20;99.90
58339;DHT22;68636;52.704;6.536;2023-03-21T16:26:28;13.20;99.90
58339;DHT22;68636;52.704;6.536;2023-03-21T16:28:55;13.20;99.90
58339;DHT22;68636;52.704;6.536;2023-03-21T16:31:26;13.10;99.90
58339;DHT22;68636;52.704;6.536;2023-03-21T16:33:52;13.10;99.90
58339;DHT22;68636;52.704;6.536;2023-03-21T16:36:27;13.00;99.90
58339;DHT22;68636;52.704;6.536;2023-03-21T16:38:54;13.00;99.90
58339;DHT22;68636;52.704;6.536;2023-03-21T16:41:24;12.90;99.90
58339;DHT22;68636;52.704;6.536;2023-03-21T16:43:51;12.80;99.90
58339;DHT22;68636;52.704;6.536;2023-03-21T16:46:20;12.60;99.90
58339;DHT22;68636;52.704;6.536;2023-03-21T16:48:48;12.40;99.90
58339;DHT22;68636;52.704;6.536;2023-03-21T16:51:16;12.30;99.90
58339;DHT22;68636;52.704;6.536;2023-03-21T16:53:43;12.20;99.90
58339;DHT22;68636;52.704;6.536;2023-03-21T16:56:55;12.10;99.90
58339;DHT22;68636;52.704;6.536;2023-03-21T16:59:02;12.00;99.90
58339;DHT22;68636;52.704;6.536;2023-03-21T17:01:27;12.00;99.90
58339;DHT22;68636;52.704;6.536;2023-03-21T17:03:55;11.90;99.90
58339;DHT22;68636;52.704;6.536;2023-03-21T17:06:25;11.90;99.90
58339;DHT22;68636;52.704;6.536;2023-03-21T17:08:53;11.80;99.90
58339;DHT22;68636;52.704;6.536;2023-03-21T17:11:20;11.80;99.90
58339;DHT22;68636;52.704;6.536;2023-03-21T17:13:48;11.80;99.90
58339;DHT22;68636;52.704;6.536;2023-03-21T17:16:17;11.80;99.90
58339;DHT22;68636;52.704;6.536;2023-03-21T17:18:43;11.90;99.90
58339;DHT22;68636;52.704;6.536;2023-03-21T17:21:15;11.90;99.90
58339;DHT22;68636;52.704;6.536;2023-03-21T17:23:42;11.90;99.90
58339;DHT22;68636;52.704;6.536;2023-03-21T17:26:10;11.90;99.90
58339;DHT22;68636;52.704;6.536;2023-03-21T17:28:37;11.90;99.90
58339;DHT22;68636;52.704;6.536;2023-03-21T17:31:05;11.80;99.90
58339;DHT22;68636;52.704;6.536;2023-03-21T17:33:36;11.80;99.90
58339;DHT22;68636;52.704;6.536;2023-03-21T17:36:02;11.80;99.90
58339;DHT22;68636;52.704;6.536;2023-03-21T17:38:28;11.80;99.90
58339;DHT22;68636;52.704;6.536;2023-03-21T17:40:55;11.80;99.90
58339;DHT22;68636;52.704;6.536;2023-03-21T17:43:22;11.80;99.90
58339;DHT22;68636;52.704;6.536;2023-03-21T17:45:48;11.80;99.90
58339;DHT22;68636;52.704;6.536;2023-03-21T17:48:14;11.80;99.90
58339;DHT22;68636;52.704;6.536;2023-03-21T17:50:40;11.80;99.90
58339;DHT22;68636;52.704;6.536;2023-03-21T17:53:06;11.70;99.90
58339;DHT22;68636;52.704;6.536;2023-03-21T17:55:34;11.60;99.90
58339;DHT22;68636;52.704;6.536;2023-03-21T17:58:00;11.60;99.90
58339;DHT22;68636;52.704;6.536;2023-03-21T18:00:28;11.50;99.90